Grant Co International Airport
KMWH : now visible

Airfield :











YOU CAN JOIN US ON...

 
LOGIN :

Register | Disclaimer

   EN    FR    IT 

 









Legend :    VFR   Marginal VFR   IFR   Intensive IFR   Very Intensive IFR
Visi :
Ceiling :
>= 8 km
>= 3000ft
5 to 8 km
1000 to 3000 ft
1500m to 5 km
500 to 1000 ft
800 to 1500m
200 to 500 ft
< 800m
< 200 ft
Symbols :   Thunderstorms  Fog  Heavy snow  Heavy precipitations  Wind > 20 kt






- Airport Elevation : 1189 ft


KMWH - Grant Co International

CURRENT METAR :
  • 220952Z AUTO 00000KT 10SM CLR 22/11 A2976 RMK AO2 SLP069 T02170106

EXPIRED METARs :
  • 220852Z AUTO 01004KT 10SM CLR 22/10 A2976 RMK AO2 SLP068 T02170100 58002
  • 220752Z AUTO 16004KT 10SM CLR 21/12 A2976 RMK AO2 SLP067 T02110122 403440144

TAF KMWH
Valid from the 22 at 06:00 until the 23 at 06:00 UTC


220520Z 2206/2306 VRB04KT P6SM SKC
FM221700 23009KT P6SM FEW250
FM222100 22012G20KT P6SM SCT250
FM230300 23008KT P6SM FEW250
KZSE FIR / North America



MET'MAP, your aeronautical weather chart ! - Copyright ORBIFLY December 2007 - Disclaimer

ORBIFLY MET'MAP TEAM :

Programming & Development : Alexandra Zaïnal
Concept & original design : Baudouin d'Aumeries
Assistance for programming : Marc-Olivier Méhu
Technical & hardware support : Manuel Goepfert

Contact : metmap@orbifly.com




SOURCES & CREDITS :

   NOAA       Earth
Advisory